Time;durP1;ratioP1;P1;durP2;ratioP2;P2;SDS_P1;SDS_P2;PMS_P1;PMS_P2;Temp;Humidity;BMP_temperature;BMP_pressure;BME280_temperature;BME280_humidity;BME280_pressure;Samples;Min_cycle;Max_cycle;Signal;HPM_P1;HPM_P2
2022/08/08 00:00:51;;;;;;;7.60;3.30;;;;;;;13.17;61.04;100991.18;1990195;89;27785;-58
2022/08/08 00:04:06;;;;;;;4.03;2.67;;;;;;;13.13;61.15;100993.65;1990410;89;28656;-59
2022/08/08 00:07:28;;;;;;;4.87;2.92;;;;;;;13.10;61.56;100985.72;1982951;89;31176;-58
2022/08/08 00:10:43;;;;;;;4.50;2.33;;;;;;;13.08;61.95;100980.41;1989887;89;32943;-58
2022/08/08 00:14:10;;;;;;;7.53;3.02;;;;;;;13.07;61.91;100986.27;1990482;89;29374;-59
2022/08/08 00:17:39;;;;;;;6.00;2.47;;;;;;;13.06;62.08;100982.33;2023933;87;27742;-58
2022/08/08 00:20:51;;;;;;;4.22;2.60;;;;;;;13.06;62.24;100983.67;2039057;86;29101;-58
2022/08/08 00:23:59;;;;;;;4.60;2.77;;;;;;;13.05;62.43;100977.89;2031531;87;31489;-57
2022/08/08 00:27:06;;;;;;;3.33;2.42;;;;;;;13.05;62.46;100976.05;2031447;87;33015;-58
2022/08/08 00:30:10;;;;;;;3.55;2.77;;;;;;;13.04;62.33;100974.80;2031282;87;28698;-58
2022/08/08 00:33:17;;;;;;;4.20;2.58;;;;;;;13.03;62.28;100977.94;2066754;85;27734;-58
2022/08/08 00:36:27;;;;;;;5.47;2.60;;;;;;;13.01;62.48;100978.48;2054432;85;28690;-58
2022/08/08 00:39:37;;;;;;;3.80;2.60;;;;;;;12.98;62.54;100982.70;2072235;85;31021;-58
2022/08/08 00:42:48;;;;;;;3.50;2.20;;;;;;;12.95;62.79;100984.19;2071393;85;33039;-58
2022/08/08 00:46:09;;;;;;;3.70;2.60;;;;;;;12.91;62.83;100979.90;2071337;85;29412;-59
2022/08/08 00:49:31;;;;;;;6.20;2.92;;;;;;;12.88;62.94;100978.70;2087177;84;27747;-58
2022/08/08 00:52:59;;;;;;;4.10;2.70;;;;;;;12.85;63.20;100990.94;1961174;89;29316;-58
2022/08/08 00:56:42;;;;;;;3.45;2.67;;;;;;;12.81;63.35;100986.67;1985583;87;32583;-58
2022/08/08 01:00:15;;;;;;;3.95;2.95;;;;;;;12.76;63.54;100985.07;1996258;89;33672;-60
2022/08/08 01:03:39;;;;;;;5.72;2.60;;;;;;;12.73;63.76;100989.73;1996701;89;30173;-58
2022/08/08 01:07:25;;;;;;;2.87;2.58;;;;;;;12.71;63.84;100988.93;1995866;89;27806;-58
2022/08/08 01:11:00;;;;;;;5.47;2.50;;;;;;;12.68;63.89;100987.23;1996632;89;29356;-57
2022/08/08 01:14:23;;;;;;;2.67;1.93;;;;;;;12.64;64.01;100992.84;1904661;93;32279;-59
2022/08/08 01:17:36;;;;;;;4.03;2.85;;;;;;;12.60;64.21;100988.94;1904690;93;33668;-58
2022/08/08 01:21:20;;;;;;;4.15;2.90;;;;;;;12.55;64.28;100992.34;1896409;93;29390;-58
2022/08/08 01:24:33;;;;;;;4.53;2.90;;;;;;;12.51;64.38;100997.45;1904695;93;27815;-58
2022/08/08 01:27:43;;;;;;;3.00;2.12;;;;;;;12.46;64.42;100996.33;1846837;96;29177;-59
2022/08/08 01:31:35;;;;;;;4.70;2.62;;;;;;;12.43;64.64;100989.75;1917466;92;32447;-58
2022/08/08 01:35:18;;;;;;;3.37;2.17;;;;;;;12.40;64.78;100991.72;1879105;94;33553;-58
2022/08/08 01:39:05;;;;;;;3.02;2.72;;;;;;;12.36;64.77;100996.33;1925983;92;29446;-58
2022/08/08 01:42:37;;;;;;;4.20;2.65;;;;;;;12.30;64.91;100996.15;1927784;92;27747;-59
2022/08/08 01:46:08;;;;;;;4.08;3.15;;;;;;;12.25;65.15;100985.22;1882981;93;28727;-58
2022/08/08 01:49:44;;;;;;;3.08;2.50;;;;;;;12.21;65.37;100991.66;1908495;89;32194;-58
2022/08/08 01:52:56;;;;;;;1.83;1.67;;;;;;;12.15;65.42;100990.13;1912809;93;33697;-58
2022/08/08 01:56:27;;;;;;;3.83;2.83;;;;;;;12.10;65.50;100989.00;1913399;93;29483;-58
2022/08/08 01:59:55;;;;;;;5.87;3.12;;;;;;;12.07;65.51;100990.48;1917160;90;27768;-58
2022/08/08 02:03:12;;;;;;;5.50;3.60;;;;;;;12.04;65.76;100991.09;1928089;92;28743;-58
2022/08/08 02:06:57;;;;;;;5.35;3.47;;;;;;;11.99;65.68;100985.45;1983375;89;32494;-58
2022/08/08 02:10:47;;;;;;;3.35;2.80;;;;;;;11.97;65.87;100989.13;1985462;89;34454;-58
2022/08/08 02:14:09;;;;;;;4.37;2.90;;;;;;;11.92;66.06;100989.30;1985465;89;30023;-58
2022/08/08 02:17:36;;;;;;;4.85;2.72;;;;;;;11.86;66.05;100982.39;1985589;89;27914;-58
2022/08/08 02:24:32;;;;;;;3.55;2.72;;;;;;;11.79;66.23;100993.02;1966149;90;31674;-58
2022/08/08 02:28:05;;;;;;;3.20;2.90;;;;;;;11.77;66.51;100998.03;1965998;90;33173;-59
2022/08/08 02:31:39;;;;;;;3.35;2.80;;;;;;;11.74;66.49;100998.19;2029608;87;29987;-58
2022/08/08 02:35:02;;;;;;;3.05;2.83;;;;;;;11.71;66.67;101000.52;2023826;87;27850;-57
2022/08/08 02:38:44;;;;;;;3.70;3.22;;;;;;;11.66;66.77;101006.09;2030329;87;29151;-59
2022/08/08 02:42:13;;;;;;;3.12;2.83;;;;;;;11.62;66.79;101013.00;1961487;90;32118;-60
2022/08/08 02:45:57;;;;;;;4.03;3.37;;;;;;;11.58;66.97;101012.72;1914094;93;34133;-58
2022/08/08 02:49:07;;;;;;;6.08;3.37;;;;;;;11.54;67.11;101012.84;1925656;88;29413;-59
2022/08/08 02:52:37;;;;;;;4.80;3.22;;;;;;;11.51;67.35;101010.28;1998298;88;27759;-58
2022/08/08 02:56:20;;;;;;;4.75;3.52;;;;;;;11.49;67.40;101000.56;1999926;88;28883;-58
2022/08/08 02:59:44;;;;;;;4.55;3.10;;;;;;;11.45;67.45;101005.20;1945070;91;32854;-59
2022/08/08 03:03:06;;;;;;;6.05;3.77;;;;;;;11.43;67.68;101009.75;1944510;91;33926;-58
2022/08/08 03:06:37;;;;;;;3.37;2.62;;;;;;;11.39;67.63;101014.38;1889509;94;28949;-58
2022/08/08 03:10:17;;;;;;;4.50;3.05;;;;;;;11.38;67.83;101011.74;1876075;94;27847;-60
2022/08/08 03:13:33;;;;;;;4.17;3.15;;;;;;;11.34;67.90;101016.82;1877022;94;29421;-64
2022/08/08 03:16:53;;;;;;;6.00;3.50;;;;;;;11.33;68.08;101019.13;1879516;94;31468;-65
2022/08/08 03:20:06;;;;;;;5.45;3.00;;;;;;;11.30;68.05;101018.77;1895078;93;33421;-67
2022/08/08 03:23:07;;;;;;;3.83;3.47;;;;;;;11.27;68.29;101018.89;1943523;91;30479;-59
2022/08/08 03:26:09;;;;;;;8.35;3.45;;;;;;;11.25;68.27;101024.33;1954570;91;27775;-65
2022/08/08 03:29:17;;;;;;;5.87;3.98;;;;;;;11.25;68.40;101021.65;1954370;91;29586;-60
2022/08/08 03:35:40;;;;;;;5.50;3.62;;;;;;;11.25;68.49;101025.67;1958224;89;34197;-69
2022/08/08 03:38:50;;;;;;;7.37;3.50;;;;;;;11.26;68.67;101030.55;1977289;90;30423;-65
2022/08/08 03:41:51;;;;;;;7.00;3.87;;;;;;;11.27;68.80;101034.98;1985967;86;27760;-65
2022/08/08 03:44:53;;;;;;;5.62;3.75;;;;;;;11.28;68.94;101028.69;2075163;85;29037;-62
2022/08/08 03:48:01;;;;;;;6.58;3.77;;;;;;;11.30;69.06;101030.84;2039853;87;31847;-63
2022/08/08 03:51:05;;;;;;;7.85;4.03;;;;;;;11.30;68.98;101031.33;2051373;85;33829;-65
2022/08/08 03:54:08;;;;;;;7.95;3.83;;;;;;;11.32;69.05;101034.34;2083383;84;29922;-62
2022/08/08 03:57:13;;;;;;;5.45;3.80;;;;;;;11.35;69.11;101039.58;2083370;84;27729;-62
2022/08/08 04:00:17;;;;;;;5.87;4.30;;;;;;;11.36;69.18;101034.63;2047765;86;29044;-67
2022/08/08 04:03:19;;;;;;;5.22;3.70;;;;;;;11.39;69.19;101036.30;2083599;84;31043;-65
2022/08/08 04:06:20;;;;;;;6.97;3.90;;;;;;;11.41;69.23;101031.74;2083356;85;33385;-66
2022/08/08 04:09:23;;;;;;;5.42;3.62;;;;;;;11.44;69.25;101037.44;2084082;85;30140;-64
2022/08/08 04:12:24;;;;;;;4.08;3.33;;;;;;;11.46;69.18;101042.28;2083478;85;27778;-62
2022/08/08 04:15:25;;;;;;;5.45;3.62;;;;;;;11.48;69.34;101043.98;2083118;85;29082;-62
2022/08/08 04:18:27;;;;;;;5.08;4.17;;;;;;;11.50;69.38;101047.45;2083035;84;31601;-58
2022/08/08 04:21:28;;;;;;;8.20;3.90;;;;;;;11.54;69.53;101051.75;2047563;86;34134;-57
2022/08/08 04:24:29;;;;;;;7.80;3.92;;;;;;;11.59;69.55;101045.33;2047772;86;29378;-58
2022/08/08 04:27:30;;;;;;;6.50;3.33;;;;;;;11.62;69.52;101047.89;2047717;86;27751;-60
2022/08/08 04:30:32;;;;;;;6.37;3.42;;;;;;;11.65;69.64;101051.31;2047662;86;29053;-58
2022/08/08 04:33:34;;;;;;;8.35;4.12;;;;;;;11.70;69.66;101048.42;2047689;85;30833;-60
2022/08/08 04:36:35;;;;;;;6.78;4.33;;;;;;;11.76;69.81;101052.20;2047647;86;33022;-58
2022/08/08 04:39:38;;;;;;;8.63;3.72;;;;;;;11.82;69.74;101052.41;2048135;86;30309;-59
2022/08/08 04:42:39;;;;;;;5.10;3.75;;;;;;;11.89;69.90;101055.70;2047889;86;27649;-57
2022/08/08 04:45:40;;;;;;;4.55;3.77;;;;;;;11.97;70.00;101053.09;2047815;86;29032;-57
2022/08/08 04:48:42;;;;;;;7.22;4.08;;;;;;;12.06;70.15;101059.91;2040567;87;31791;-57
2022/08/08 04:51:44;;;;;;;6.62;4.40;;;;;;;12.16;70.11;101059.89;2014361;86;34401;-58
2022/08/08 04:54:46;;;;;;;5.75;3.92;;;;;;;12.28;70.33;101061.16;2014799;88;29489;-58
2022/08/08 04:57:47;;;;;;;12.33;4.17;;;;;;;12.44;70.41;101067.19;2014865;88;27625;-59
2022/08/08 05:00:51;;;;;;;4.70;4.25;;;;;;;12.75;70.92;101063.98;2014544;87;29849;-61
2022/08/08 05:03:53;;;;;;;13.70;6.15;;;;;;;13.67;71.80;101060.48;2014827;88;32354;-58
2022/08/08 05:06:54;;;;;;;5.65;3.98;;;;;;;14.79;71.21;101057.86;2014815;87;33365;-58
2022/08/08 05:09:56;;;;;;;6.97;4.10;;;;;;;15.56;69.52;101068.34;2014143;87;29345;-58
2022/08/08 05:12:57;;;;;;;7.00;3.95;;;;;;;16.06;68.48;101074.45;2014282;87;27647;-58
2022/08/08 05:15:58;;;;;;;5.83;3.65;;;;;;;16.39;67.28;101071.11;2013856;88;29854;-59
2022/08/08 05:19:00;;;;;;;5.00;3.77;;;;;;;16.52;66.57;101076.64;2024211;86;32221;-60
2022/08/08 05:22:08;;;;;;;6.90;3.50;;;;;;;16.76;66.14;101070.66;2045641;86;34095;-59
2022/08/08 05:25:09;;;;;;;3.47;2.98;;;;;;;16.96;65.59;101075.68;2040598;85;29412;-58
2022/08/08 05:28:11;;;;;;;3.50;2.92;;;;;;;17.20;65.01;101074.22;2047687;86;27684;-59
2022/08/08 05:31:12;;;;;;;5.30;2.85;;;;;;;17.39;64.14;101067.95;2047610;86;28809;-58
2022/08/08 05:34:27;;;;;;;5.90;3.33;;;;;;;17.54;63.81;101067.44;2047614;87;31211;-58
2022/08/08 05:37:30;;;;;;;4.80;3.00;;;;;;;17.70;63.04;101073.17;2099682;84;32966;-59
2022/08/08 05:40:33;;;;;;;3.85;3.45;;;;;;;17.82;62.38;101079.11;2083802;85;30127;-58
2022/08/08 05:43:37;;;;;;;4.00;3.47;;;;;;;17.90;61.54;101079.94;2099877;84;27683;-59
2022/08/08 05:46:40;;;;;;;5.37;3.40;;;;;;;18.04;61.27;101081.25;2083610;84;29294;-58
2022/08/08 05:49:46;;;;;;;3.30;3.00;;;;;;;18.24;60.72;101084.94;2098606;84;31752;-59
2022/08/08 05:52:48;;;;;;;4.47;3.20;;;;;;;18.39;60.44;101081.15;2113955;84;33141;-59
2022/08/08 05:55:54;;;;;;;3.85;2.67;;;;;;;18.58;59.99;101075.28;2078333;85;29745;-59
2022/08/08 05:59:09;;;;;;;7.50;3.05;;;;;;;18.77;59.45;101080.28;2077000;85;27629;-59
2022/08/08 06:03:09;;;;;;;6.08;2.50;;;;;;;19.00;59.11;101080.98;2111854;84;29689;-59
2022/08/08 06:05:23;;;;;;;6.62;2.90;;;;;;;19.27;58.84;101088.45;2110643;84;32102;-60
2022/08/08 06:08:44;;;;;;;2.92;2.67;;;;;;;19.59;58.61;101087.89;2076810;85;33337;-59
2022/08/08 06:11:45;;;;;;;5.20;2.83;;;;;;;19.87;58.06;101098.05;2077133;85;29268;-59
2022/08/08 06:14:46;;;;;;;3.55;2.50;;;;;;;20.16;57.24;101094.08;2076768;85;27712;-59
2022/08/08 06:17:49;;;;;;;3.33;2.27;;;;;;;20.44;56.72;101091.44;2076710;85;28701;-59
2022/08/08 06:20:55;;;;;;;4.50;2.80;;;;;;;20.68;56.38;101092.33;2113477;84;31093;-59
2022/08/08 06:23:56;;;;;;;7.97;2.52;;;;;;;20.98;55.95;101093.11;2113430;84;32898;-59
2022/08/08 06:27:07;;;;;;;3.52;2.47;;;;;;;21.52;55.34;101095.97;2113929;84;29245;-59
2022/08/08 06:30:11;;;;;;;6.70;2.35;;;;;;;22.16;54.74;101099.75;2114277;84;28232;-61
2022/08/08 06:33:12;;;;;;;7.22;2.15;;;;;;;22.94;54.46;101092.50;2114106;84;28659;-59
2022/08/08 06:36:22;;;;;;;5.55;2.58;;;;;;;23.74;52.76;101098.58;2114002;84;32281;-59
2022/08/08 06:39:25;;;;;;;3.85;2.10;;;;;;;24.48;51.41;101094.87;2112961;84;33346;-59
2022/08/08 06:42:30;;;;;;;2.10;1.90;;;;;;;25.20;50.24;101087.47;2114338;84;29678;-59
2022/08/08 06:45:32;;;;;;;;;;;;;;;25.89;49.77;101088.73;2116723;84;27676;-59
2022/08/08 06:48:35;;;;;;;2.80;1.92;;;;;;;26.55;48.12;101093.92;2075296;85;28650;-59
2022/08/08 06:51:36;;;;;;;2.12;1.55;;;;;;;27.13;48.15;101092.36;2084374;85;32001;-59
2022/08/08 06:54:39;;;;;;;2.83;1.77;;;;;;;27.59;47.06;101090.61;2100357;84;33367;-59
2022/08/08 06:57:40;;;;;;;4.37;1.92;;;;;;;27.99;45.81;101093.58;2053399;86;29492;-59
2022/08/08 07:00:44;;;;;;;8.30;2.20;;;;;;;28.41;44.83;101088.94;2053706;86;27612;-59
2022/08/08 07:04:11;;;;;;;5.08;2.22;;;;;;;28.70;43.58;101093.53;2053363;86;28783;-59
2022/08/08 07:07:17;;;;;;;4.90;1.72;;;;;;;28.95;43.22;101087.45;1935954;91;31138;-59
2022/08/08 07:10:21;;;;;;;6.28;1.95;;;;;;;29.21;41.46;101090.42;1966741;90;33131;-59
2022/08/08 07:13:27;;;;;;;2.55;1.80;;;;;;;29.34;41.18;101079.69;1961662;90;29317;-59
2022/08/08 07:16:43;;;;;;;1.87;1.22;;;;;;;29.59;40.75;101084.23;1961659;90;27792;-59
2022/08/08 07:19:59;;;;;;;2.80;1.80;;;;;;;29.80;39.76;101080.25;1960591;90;28673;-59
2022/08/08 07:23:06;;;;;;;2.75;1.52;;;;;;;29.93;39.07;101078.27;1976784;90;30962;-59
2022/08/08 07:26:08;;;;;;;6.30;1.40;;;;;;;30.05;38.43;101077.34;1998095;89;33403;-59
2022/08/08 07:29:09;;;;;;;2.58;1.50;;;;;;;30.16;37.98;101071.36;1982225;89;29857;-59
2022/08/08 07:32:11;;;;;;;3.98;1.45;;;;;;;30.17;36.79;101081.91;1998463;89;27725;-57
2022/08/08 07:35:12;;;;;;;4.53;2.15;;;;;;;30.20;36.81;101073.21;1986242;88;29945;-57
2022/08/08 07:38:18;;;;;;;6.58;2.52;;;;;;;30.25;36.66;101076.28;1998291;89;31555;-58
2022/08/08 07:41:20;;;;;;;1.65;1.30;;;;;;;30.32;36.07;101076.39;2011278;88;33936;-58
2022/08/08 07:44:23;;;;;;;10.58;3.22;;;;;;;30.46;35.10;101076.09;2072480;84;29352;-57
2022/08/08 07:47:25;;;;;;;1.40;1.17;;;;;;;30.47;35.27;101078.65;2118366;84;27776;-58
2022/08/08 07:50:26;;;;;;;2.20;1.30;;;;;;;30.50;34.87;101076.55;2081911;84;29211;-58
2022/08/08 07:53:36;;;;;;;3.27;1.40;;;;;;;30.67;34.30;101071.75;2062306;86;31507;-58
2022/08/08 07:56:51;;;;;;;2.70;1.30;;;;;;;30.60;33.68;101073.88;2061753;86;32433;-59
2022/08/08 08:00:12;;;;;;;1.12;1.00;;;;;;;30.68;32.42;101077.08;2057733;84;43874;-61
2022/08/08 08:03:31;;;;;;;4.55;1.05;;;;;;;30.71;32.29;101079.47;2060274;86;27604;-59
2022/08/08 08:06:33;;;;;;;1.87;1.00;;;;;;;30.79;31.94;101076.26;2060870;86;28611;-59
2022/08/08 08:09:39;;;;;;;2.95;1.40;;;;;;;30.83;31.83;101074.33;2062158;86;31548;-60
2022/08/08 08:12:45;;;;;;;2.62;1.37;;;;;;;30.99;31.70;101074.63;2062263;86;32915;-59
2022/08/08 08:16:06;;;;;;;2.87;1.42;;;;;;;30.87;31.10;101070.09;2062104;85;29333;-59
2022/08/08 08:19:09;;;;;;;1.57;1.17;;;;;;;30.86;30.73;101065.61;2061079;86;27685;-72
2022/08/08 08:22:11;;;;;;;3.65;1.27;;;;;;;30.51;29.14;101074.13;2060808;86;33221;-70
2022/08/08 08:25:12;;;;;;;4.40;1.50;;;;;;;30.34;30.58;101072.91;2060789;86;31034;-68
2022/08/08 08:28:14;;;;;;;2.92;1.10;;;;;;;30.45;30.12;101075.75;2060061;86;33397;-64
2022/08/08 08:31:16;;;;;;;3.05;1.27;;;;;;;30.68;30.58;101077.08;2060317;86;30222;-72
2022/08/08 08:34:17;;;;;;;1.50;1.10;;;;;;;30.79;29.32;101079.02;2060476;86;27611;-66
2022/08/08 08:37:18;;;;;;;1.87;1.40;;;;;;;30.57;29.20;101082.55;2059914;86;29413;-68
2022/08/08 08:40:20;;;;;;;1.72;1.00;;;;;;;30.29;28.94;101079.52;2060091;86;31891;-60
2022/08/08 08:43:22;;;;;;;1.65;1.07;;;;;;;30.09;28.52;101082.84;2059957;86;33181;-60
2022/08/08 08:46:25;;;;;;;2.33;1.20;;;;;;;29.79;29.25;101074.92;2060202;86;29211;-58
2022/08/08 08:49:27;;;;;;;2.10;1.30;;;;;;;29.91;29.65;101078.13;2060629;86;27728;-59
2022/08/08 08:52:28;;;;;;;1.35;1.00;;;;;;;29.97;29.34;101073.25;2060157;85;28643;-60
2022/08/08 08:55:32;;;;;;;3.58;1.20;;;;;;;29.86;29.16;101077.30;2061256;86;31538;-60
2022/08/08 08:58:43;;;;;;;1.47;1.00;;;;;;;29.47;29.55;101081.86;2062215;85;33801;-60
2022/08/08 09:01:46;;;;;;;3.77;1.30;;;;;;;29.41;29.71;101078.47;2062003;86;29793;-59
2022/08/08 09:04:48;;;;;;;3.83;1.32;;;;;;;29.33;29.42;101071.06;2062368;86;27708;-59
2022/08/08 09:07:52;;;;;;;3.37;1.32;;;;;;;29.19;29.30;101077.36;2038148;85;29099;-59
2022/08/08 09:10:54;;;;;;;2.08;1.10;;;;;;;29.14;28.95;101079.78;2002532;88;31203;-60
2022/08/08 09:13:56;;;;;;;1.72;1.02;;;;;;;28.82;29.28;101071.45;2038997;85;33873;-64
2022/08/08 09:16:57;;;;;;;5.03;1.10;;;;;;;28.71;28.99;101074.58;2079045;85;29358;-58
2022/08/08 09:19:59;;;;;;;2.87;1.10;;;;;;;28.58;29.67;101082.01;2087744;85;27592;-63
2022/08/08 09:23:01;;;;;;;1.87;1.40;;;;;;;28.40;29.66;101078.09;2083604;84;29054;-60
2022/08/08 09:26:10;;;;;;;2.60;0.93;;;;;;;28.18;29.91;101077.77;2070491;85;32084;-59
2022/08/08 09:29:17;;;;;;;2.33;1.17;;;;;;;28.03;30.26;101077.05;2068540;85;32984;-60
2022/08/08 09:32:38;;;;;;;2.58;1.30;;;;;;;27.65;29.72;101077.21;2085140;84;29763;-57
2022/08/08 09:35:44;;;;;;;1.37;0.93;;;;;;;27.14;30.16;101083.58;2075227;85;27663;-61
2022/08/08 09:38:55;;;;;;;1.80;1.00;;;;;;;26.78;30.60;101079.11;2086501;84;28804;-62
2022/08/08 09:42:03;;;;;;;1.87;1.10;;;;;;;26.80;30.71;101077.59;2084489;85;31037;-63
2022/08/08 09:45:18;;;;;;;1.40;1.20;;;;;;;26.70;31.07;101076.30;2083931;84;34080;-63
2022/08/08 09:48:20;;;;;;;4.65;1.52;;;;;;;26.49;31.03;101078.91;2073304;84;29389;-62
2022/08/08 09:51:25;;;;;;;1.05;0.90;;;;;;;26.25;31.70;101086.47;2090846;82;28821;-61
2022/08/08 09:54:32;;;;;;;3.80;1.40;;;;;;;26.05;31.30;101079.79;2117161;83;29233;-62
2022/08/08 09:57:40;;;;;;;2.72;1.20;;;;;;;25.70;31.57;101080.16;2100003;84;31899;-63
2022/08/08 10:00:43;;;;;;;1.67;1.10;;;;;;;25.46;31.74;101084.36;2092322;84;33582;-62
2022/08/08 10:03:46;;;;;;;2.50;1.10;;;;;;;25.28;32.25;101079.31;2084723;84;29379;-61
2022/08/08 10:06:47;;;;;;;1.47;1.07;;;;;;;25.30;32.71;101079.54;2095778;84;27678;-62
2022/08/08 10:09:51;;;;;;;1.27;1.05;;;;;;;25.22;32.58;101078.06;2111329;84;29217;-61
2022/08/08 10:12:53;;;;;;;6.93;1.70;;;;;;;25.14;32.71;101077.45;2093290;84;31728;-61
2022/08/08 10:15:57;;;;;;;3.47;1.05;;;;;;;25.15;32.93;101071.48;2103553;84;32987;-62
2022/08/08 10:19:04;;;;;;;3.52;1.42;;;;;;;25.18;32.91;101078.00;2092347;84;29105;-60
2022/08/08 10:22:07;;;;;;;1.75;0.82;;;;;;;25.17;33.04;101074.41;2104222;84;27765;-62
2022/08/08 10:25:10;;;;;;;3.60;2.20;;;;;;;25.08;33.12;101071.20;2059556;85;28670;-62
2022/08/08 10:28:16;;;;;;;3.58;1.12;;;;;;;25.03;33.38;101077.67;2098210;84;31684;-61
2022/08/08 10:34:42;;;;;;;2.20;1.07;;;;;;;24.80;32.89;101073.09;2103023;83;30585;-60
2022/08/08 10:37:54;;;;;;;1.25;1.00;;;;;;;24.64;33.19;101069.08;2101938;84;27966;-59
2022/08/08 10:40:55;;;;;;;4.50;1.30;;;;;;;24.63;33.68;101070.09;2098403;84;28743;-60
2022/08/08 10:43:58;;;;;;;2.58;1.17;;;;;;;24.60;33.48;101062.66;2107050;84;31185;-60
2022/08/08 10:47:13;;;;;;;1.22;1.12;;;;;;;24.64;33.73;101062.23;2095468;84;33744;-59
2022/08/08 10:50:14;;;;;;;2.58;1.15;;;;;;;24.69;33.55;101068.63;2091593;84;30136;-60
2022/08/08 10:53:18;;;;;;;6.25;1.20;;;;;;;24.65;33.71;101068.56;2105867;83;28208;-59
2022/08/08 10:56:21;;;;;;;1.95;1.22;;;;;;;24.64;34.14;101069.57;2127589;82;29192;-60
2022/08/08 10:59:22;;;;;;;3.45;1.77;;;;;;;24.70;34.02;101058.91;2096811;84;31143;-62
2022/08/08 11:02:30;;;;;;;2.40;0.95;;;;;;;24.90;33.93;101056.08;2098321;82;33335;-61
2022/08/08 11:05:32;;;;;;;3.87;1.02;;;;;;;25.11;34.31;101053.08;2110615;83;29744;-61
2022/08/08 11:08:35;;;;;;;1.20;1.10;;;;;;;25.25;34.15;101057.19;2136902;82;27578;-61
2022/08/08 11:11:42;;;;;;;5.85;1.45;;;;;;;25.34;33.60;101049.91;2107171;83;29860;-62
2022/08/08 11:14:56;;;;;;;2.35;1.00;;;;;;;25.36;33.67;101055.23;2131241;82;32288;-60
2022/08/08 11:17:57;;;;;;;3.47;1.20;;;;;;;25.40;33.70;101051.17;2104536;83;34113;-60
2022/08/08 11:21:02;;;;;;;2.05;1.02;;;;;;;25.50;33.21;101051.14;2129271;82;30525;-60
2022/08/08 11:24:05;;;;;;;;;;;;;;;25.61;33.78;101042.66;2097671;84;27709;-60
2022/08/08 11:27:07;;;;;;;3.58;1.32;;;;;;;25.73;33.40;101052.38;2101218;84;29020;-60
2022/08/08 11:30:10;;;;;;;4.17;1.00;;;;;;;25.72;33.13;101049.31;2084934;84;31480;-60
2022/08/08 11:33:12;;;;;;;2.55;1.20;;;;;;;25.68;33.02;101044.27;2113082;84;33682;-60
2022/08/08 11:36:14;;;;;;;2.83;1.57;;;;;;;25.60;33.21;101038.19;2063687;85;30471;-60
2022/08/08 11:39:16;;;;;;;3.98;1.47;;;;;;;25.66;33.41;101048.55;2069043;85;28317;-61
2022/08/08 11:42:18;;;;;;;1.77;1.22;;;;;;;25.59;33.21;101049.69;2069070;86;28700;-61
2022/08/08 11:45:21;;;;;;;2.10;1.27;;;;;;;25.47;33.16;101042.72;2068937;86;30943;-61
2022/08/08 11:48:23;;;;;;;2.37;1.50;;;;;;;25.42;32.97;101047.27;2068977;86;32865;-60
2022/08/08 11:51:26;;;;;;;3.62;1.55;;;;;;;25.29;33.09;101044.91;2073491;85;29105;-60
2022/08/08 11:54:32;;;;;;;1.15;1.00;;;;;;;25.24;33.40;101044.98;2071325;85;27732;-60
2022/08/08 11:57:34;;;;;;;4.40;1.20;;;;;;;25.28;33.47;101040.92;2082187;85;28998;-61
2022/08/08 12:00:51;;;;;;;2.80;1.05;;;;;;;25.37;33.55;101043.25;2107410;84;31116;-61
2022/08/08 12:03:53;;;;;;;1.17;1.07;;;;;;;25.35;33.11;101039.30;2082587;85;32965;-61
2022/08/08 12:07:06;;;;;;;2.77;1.30;;;;;;;25.33;32.98;101036.69;2078912;84;30464;-60
2022/08/08 12:10:13;;;;;;;2.42;1.02;;;;;;;25.40;32.70;101038.83;2065470;86;27637;-62
2022/08/08 12:13:24;;;;;;;2.02;1.32;;;;;;;25.34;32.41;101037.05;2065377;86;29531;-60
2022/08/08 12:16:25;;;;;;;1.62;1.30;;;;;;;25.30;32.43;101038.41;2065493;86;31056;-60
2022/08/08 12:19:27;;;;;;;3.42;1.32;;;;;;;25.16;32.52;101037.53;2066461;85;33353;-59
2022/08/08 12:22:30;;;;;;;1.65;1.35;;;;;;;25.02;32.77;101030.19;2107419;84;29461;-60
2022/08/08 12:25:33;;;;;;;2.98;1.40;;;;;;;24.90;32.67;101025.08;2061025;85;27730;-61
2022/08/08 12:28:34;;;;;;;2.27;1.35;;;;;;;24.81;32.81;101033.71;2107513;84;28690;-60
2022/08/08 12:31:35;;;;;;;2.25;1.55;;;;;;;24.74;32.68;101032.05;2082178;85;32203;-60
2022/08/08 12:34:47;;;;;;;2.40;1.32;;;;;;;24.64;33.01;101024.36;2099436;84;33625;-60
2022/08/08 12:38:06;;;;;;;3.37;1.32;;;;;;;24.59;32.26;101034.41;2064898;86;29929;-60
2022/08/08 12:41:11;;;;;;;3.25;1.37;;;;;;;24.56;32.45;101025.11;2065310;86;27716;-60
2022/08/08 12:44:14;;;;;;;3.98;1.40;;;;;;;24.50;32.23;101027.08;2065375;85;29084;-60
2022/08/08 12:47:25;;;;;;;2.50;1.47;;;;;;;24.40;32.53;101030.72;2065510;84;32196;-60
2022/08/08 12:50:41;;;;;;;2.90;1.42;;;;;;;24.34;32.71;101030.45;2065133;86;34134;-60
2022/08/08 12:54:00;;;;;;;3.27;1.47;;;;;;;24.36;33.30;101026.55;2066546;86;29728;-60
2022/08/08 12:57:23;;;;;;;3.37;1.67;;;;;;;24.45;32.90;101020.68;2068512;86;27530;-60
2022/08/08 13:00:28;;;;;;;2.22;1.20;;;;;;;24.58;33.28;101017.62;2084680;85;28690;-61
2022/08/08 13:03:32;;;;;;;2.70;1.45;;;;;;;24.75;33.35;101011.02;2109823;84;32378;-60
2022/08/08 13:06:34;;;;;;;5.00;1.85;;;;;;;24.92;33.06;101014.80;2075598;85;33912;-60
2022/08/08 13:09:41;;;;;;;3.47;1.70;;;;;;;25.05;32.75;101007.10;2073128;85;29354;-61
2022/08/08 13:12:45;;;;;;;2.22;1.55;;;;;;;25.10;32.72;101007.48;2073365;85;28026;-61
2022/08/08 13:15:46;;;;;;;2.30;1.73;;;;;;;24.82;32.73;100978.73;2110378;84;28656;-60
2022/08/08 13:18:48;;;;;;;2.00;1.80;;;;;;;24.82;32.73;100978.73;2073406;85;31131;-59
2022/08/08 13:21:49;;;;;;;2.83;1.77;;;;;;;24.93;32.74;101002.33;2073594;85;33659;-63
2022/08/08 13:24:51;;;;;;;3.58;2.02;;;;;;;24.89;32.83;100994.05;2033801;85;29708;-61
2022/08/08 13:27:55;;;;;;;2.27;1.90;;;;;;;24.92;33.28;101000.61;2046977;87;27673;-60
2022/08/08 13:30:58;;;;;;;3.17;2.40;;;;;;;25.03;33.23;100999.53;2068562;86;29065;-61
2022/08/08 13:33:59;;;;;;;4.45;1.80;;;;;;;25.09;32.81;100998.90;2046681;87;31198;-60
2022/08/08 13:37:01;;;;;;;3.00;1.98;;;;;;;25.15;33.38;100994.18;2068699;84;33169;-59
2022/08/08 13:40:05;;;;;;;5.22;2.55;;;;;;;25.28;32.93;100997.05;2046493;87;30669;-59
2022/08/08 13:43:06;;;;;;;4.10;2.17;;;;;;;25.29;32.57;100994.16;2068250;86;27702;-60
2022/08/08 13:46:13;;;;;;;3.92;2.08;;;;;;;25.22;32.41;100995.79;2046725;87;29055;-60
2022/08/08 13:49:24;;;;;;;6.25;2.17;;;;;;;25.15;32.54;100999.66;2068391;85;31029;-60
2022/08/08 13:52:30;;;;;;;4.42;2.05;;;;;;;25.05;32.64;100996.14;2070769;85;33391;-60
2022/08/08 13:55:38;;;;;;;3.75;2.30;;;;;;;24.92;32.53;100992.87;2068659;85;29302;-59
2022/08/08 13:58:58;;;;;;;2.27;1.98;;;;;;;24.85;32.57;100995.37;2064119;86;27671;-60
2022/08/08 14:02:01;;;;;;;2.60;2.37;;;;;;;24.81;33.10;100990.71;2068721;85;28594;-59
2022/08/08 14:05:06;;;;;;;2.58;2.35;;;;;;;24.81;33.09;100989.86;2063608;86;31815;-60
2022/08/08 14:08:09;;;;;;;8.48;2.10;;;;;;;24.84;33.39;100980.81;2068456;85;32964;-60
2022/08/08 14:11:17;;;;;;;3.52;1.98;;;;;;;24.96;33.62;100991.56;2020994;86;29352;-60
2022/08/08 14:14:19;;;;;;;5.10;1.80;;;;;;;25.03;33.23;100986.67;2068466;85;27663;-60
2022/08/08 14:17:21;;;;;;;6.25;2.10;;;;;;;25.04;33.00;100988.92;2042563;86;28676;-60
2022/08/08 14:20:37;;;;;;;2.60;1.92;;;;;;;25.02;32.88;100986.84;2032706;85;31088;-60
2022/08/08 14:23:44;;;;;;;4.05;1.55;;;;;;;25.03;33.13;100992.68;2022041;88;32971;-60
2022/08/08 14:26:45;;;;;;;1.70;1.60;;;;;;;25.06;33.37;100998.35;2028486;87;29742;-60
2022/08/08 14:29:58;;;;;;;4.05;1.75;;;;;;;25.07;33.38;100998.71;2022208;87;27791;-60
2022/08/08 14:33:00;;;;;;;1.55;1.40;;;;;;;25.01;33.66;100995.56;2028726;86;29909;-60
2022/08/08 14:36:10;;;;;;;2.00;1.50;;;;;;;24.98;33.39;100994.52;2003358;88;31173;-60
2022/08/08 14:39:19;;;;;;;2.22;1.60;;;;;;;24.93;33.61;100992.73;2034465;86;34172;-60
2022/08/08 14:42:30;;;;;;;2.02;1.37;;;;;;;24.88;33.45;101004.66;2064289;86;29327;-61
2022/08/08 14:45:33;;;;;;;2.90;1.47;;;;;;;24.82;33.39;100999.81;2068601;85;27671;-59
2022/08/08 14:48:48;;;;;;;2.12;1.65;;;;;;;24.80;33.37;101003.20;2033350;86;28734;-60
2022/08/08 14:51:50;;;;;;;2.60;1.60;;;;;;;24.77;33.54;100998.02;2064235;86;31477;-59